createdAt,value
2018-07-13T00:00:42.536Z,13.30
2018-07-13T00:03:11.118Z,14.63
2018-07-13T00:05:39.744Z,15.93
2018-07-13T00:08:08.398Z,13.87
2018-07-13T00:10:37.001Z,18.27
2018-07-13T00:13:05.354Z,12.73
2018-07-13T00:15:33.937Z,14.83
2018-07-13T00:18:02.577Z,11.20
2018-07-13T00:20:31.245Z,14.60
2018-07-13T00:22:59.899Z,12.30
2018-07-13T00:25:28.547Z,10.87
2018-07-13T00:27:57.117Z,15.07
2018-07-13T00:30:25.405Z,14.10
2018-07-13T00:32:53.981Z,11.67
2018-07-13T00:35:22.596Z,11.80
2018-07-13T00:37:51.182Z,14.00
2018-07-13T00:40:19.767Z,14.63
2018-07-13T00:42:48.420Z,11.93
2018-07-13T00:45:17.110Z,15.83
2018-07-13T00:47:45.758Z,11.63
2018-07-13T00:50:14.365Z,13.17
2018-07-13T00:52:42.956Z,15.00
2018-07-13T00:55:11.540Z,11.50
2018-07-13T00:57:40.135Z,11.53
2018-07-13T01:00:08.863Z,13.83
2018-07-13T01:02:37.504Z,14.23
2018-07-13T01:05:09.964Z,14.70
2018-07-13T01:07:38.661Z,12.70
2018-07-13T01:10:07.351Z,10.77
2018-07-13T01:12:35.937Z,18.50
2018-07-13T01:15:04.665Z,14.30
2018-07-13T01:17:33.311Z,10.97
2018-07-13T01:20:02.022Z,18.53
2018-07-13T01:22:30.658Z,13.43
2018-07-13T01:24:59.312Z,11.17
2018-07-13T01:27:28.824Z,9.63
2018-07-13T01:29:58.432Z,19.10
2018-07-13T01:32:27.060Z,16.47
2018-07-13T01:34:55.918Z,10.90
2018-07-13T01:37:24.518Z,13.40
2018-07-13T01:39:53.114Z,14.23
2018-07-13T01:42:21.720Z,18.30
2018-07-13T01:44:50.355Z,16.03
2018-07-13T01:47:19.029Z,13.77
2018-07-13T01:49:47.622Z,17.10
2018-07-13T01:52:16.217Z,13.03
2018-07-13T01:54:44.829Z,14.23
2018-07-13T01:57:13.439Z,15.90
2018-07-13T01:59:42.097Z,12.07
2018-07-13T02:02:10.755Z,13.40
2018-07-13T02:04:39.450Z,12.47
2018-07-13T02:07:08.060Z,10.47
2018-07-13T02:09:36.723Z,12.47
2018-07-13T02:12:05.465Z,11.73
2018-07-13T02:14:34.083Z,12.40
2018-07-13T02:17:02.722Z,11.27
2018-07-13T02:19:31.412Z,12.80
2018-07-13T02:22:00.012Z,11.97
2018-07-13T02:24:28.649Z,11.13
2018-07-13T02:26:57.320Z,11.30
2018-07-13T02:29:25.942Z,10.57
2018-07-13T02:31:54.594Z,11.40
2018-07-13T02:34:23.185Z,10.33
2018-07-13T02:36:52.203Z,11.77
2018-07-13T02:39:20.791Z,13.03
2018-07-13T02:41:49.431Z,12.83
2018-07-13T02:44:18.009Z,10.03
2018-07-13T02:46:46.630Z,15.47
2018-07-13T02:49:15.299Z,14.13
2018-07-13T02:51:43.957Z,10.37
2018-07-13T02:54:12.557Z,13.53
2018-07-13T02:56:41.158Z,9.60
2018-07-13T02:59:09.734Z,11.90
2018-07-13T03:01:38.899Z,13.80
2018-07-13T03:04:07.569Z,10.47
2018-07-13T03:06:36.256Z,11.00
2018-07-13T03:09:07.275Z,12.33
2018-07-13T03:11:35.899Z,15.53
2018-07-13T03:14:04.746Z,13.97
2018-07-13T03:16:33.415Z,11.53
2018-07-13T03:19:02.007Z,12.07
2018-07-13T03:21:30.613Z,12.50
2018-07-13T03:23:59.187Z,12.30
2018-07-13T03:26:27.999Z,11.73
2018-07-13T03:28:56.689Z,13.33
2018-07-13T03:31:25.272Z,15.63
2018-07-13T03:33:53.854Z,11.20
2018-07-13T03:36:22.546Z,12.17
2018-07-13T03:38:51.216Z,14.37
2018-07-13T03:41:19.826Z,16.60
2018-07-13T03:43:48.904Z,15.57
2018-07-13T03:46:17.480Z,16.23
2018-07-13T03:48:46.038Z,14.47
2018-07-13T03:51:14.629Z,11.83
2018-07-13T03:53:43.238Z,14.00
2018-07-13T03:56:11.822Z,11.30
2018-07-13T03:58:40.472Z,18.23
2018-07-13T04:01:09.039Z,11.33
2018-07-13T04:03:37.625Z,16.83
2018-07-13T04:06:06.232Z,15.43
2018-07-13T04:08:34.905Z,17.37
2018-07-13T04:11:03.503Z,14.43
2018-07-13T04:13:32.123Z,13.13
2018-07-13T04:16:00.426Z,14.00
2018-07-13T04:18:29.044Z,14.20
2018-07-13T04:20:57.740Z,12.30
2018-07-13T04:23:26.406Z,12.93
2018-07-13T04:25:55.018Z,13.27
2018-07-13T04:28:23.696Z,13.43
2018-07-13T04:30:52.390Z,14.63
2018-07-13T04:33:20.968Z,15.57
2018-07-13T04:35:49.544Z,16.63
2018-07-13T04:38:18.182Z,15.80
2018-07-13T04:40:46.925Z,15.67
2018-07-13T04:43:15.486Z,16.00
2018-07-13T04:45:44.160Z,10.87
2018-07-13T04:48:12.818Z,16.93
2018-07-13T04:50:41.630Z,16.73
2018-07-13T04:53:10.539Z,15.50
2018-07-13T04:55:39.276Z,11.97
2018-07-13T04:58:08.010Z,11.13
2018-07-13T05:00:36.806Z,13.60
2018-07-13T05:03:05.571Z,17.60
2018-07-13T05:05:34.290Z,14.87
2018-07-13T05:08:03.028Z,15.27
2018-07-13T05:10:31.693Z,15.57
2018-07-13T05:13:00.384Z,19.97
2018-07-13T05:15:28.655Z,17.67
2018-07-13T05:17:57.242Z,14.03
2018-07-13T05:20:25.922Z,13.87
2018-07-13T05:22:54.594Z,15.83
2018-07-13T05:25:23.270Z,19.30
2018-07-13T05:27:52.002Z,17.10
2018-07-13T05:30:20.681Z,24.03
2018-07-13T05:32:49.347Z,31.13
2018-07-13T05:35:18.104Z,22.70
2018-07-13T05:37:46.417Z,19.93
2018-07-13T05:40:15.106Z,21.03
2018-07-13T05:42:43.797Z,19.40
2018-07-13T05:45:12.498Z,14.03
2018-07-13T05:47:41.202Z,18.53
2018-07-13T05:50:09.874Z,15.20
2018-07-13T05:52:38.578Z,13.03
2018-07-13T05:55:07.234Z,18.33
2018-07-13T05:57:36.520Z,18.67
2018-07-13T06:00:05.228Z,13.60
2018-07-13T06:02:33.976Z,12.77
2018-07-13T06:05:02.614Z,19.93
2018-07-13T06:07:31.327Z,20.87
2018-07-13T06:10:00.054Z,15.10
2018-07-13T06:12:28.769Z,15.43
2018-07-13T06:14:57.458Z,16.27
2018-07-13T06:17:26.004Z,23.60
2018-07-13T06:19:54.592Z,18.00
2018-07-13T06:22:23.188Z,16.77
2018-07-13T06:24:51.810Z,13.70
2018-07-13T06:27:20.407Z,15.53
2018-07-13T06:29:48.986Z,13.90
2018-07-13T06:32:17.687Z,15.87
2018-07-13T06:34:46.338Z,15.10
2018-07-13T06:37:15.353Z,17.30
2018-07-13T06:39:44.074Z,12.90
2018-07-13T06:42:12.740Z,17.40
2018-07-13T06:44:41.430Z,15.17
2018-07-13T06:47:09.998Z,12.73
2018-07-13T06:49:38.679Z,16.00
2018-07-13T06:52:06.998Z,15.83
2018-07-13T06:54:35.606Z,11.70
2018-07-13T06:57:04.229Z,14.73
2018-07-13T06:59:32.896Z,20.47
2018-07-13T07:02:01.579Z,11.37
2018-07-13T07:04:34.250Z,10.57
2018-07-13T07:07:07.524Z,17.30
2018-07-13T07:09:36.917Z,11.10
2018-07-13T07:12:20.330Z,12.10
2018-07-13T07:14:48.940Z,12.80
2018-07-13T07:17:17.602Z,18.77
2018-07-13T07:19:45.873Z,16.03
2018-07-13T07:22:14.533Z,11.67
2018-07-13T07:24:43.148Z,14.80
2018-07-13T07:27:11.724Z,15.13
2018-07-13T07:29:40.339Z,11.90
2018-07-13T07:32:09.022Z,13.40
2018-07-13T07:34:37.338Z,11.80
2018-07-13T07:37:05.997Z,14.13
2018-07-13T07:39:34.638Z,13.60
2018-07-13T07:42:03.325Z,12.97
2018-07-13T07:44:32.012Z,11.50
2018-07-13T07:47:00.721Z,10.80
2018-07-13T07:49:29.393Z,10.53
2018-07-13T07:51:58.061Z,16.60
2018-07-13T07:54:26.777Z,11.27
2018-07-13T07:56:55.409Z,11.23
2018-07-13T07:59:23.676Z,14.10
2018-07-13T08:01:53.036Z,11.43
2018-07-13T08:04:21.637Z,11.83
2018-07-13T08:06:50.433Z,11.57
2018-07-13T08:09:18.903Z,10.20
2018-07-13T08:11:47.571Z,12.40
2018-07-13T08:14:16.643Z,12.40
2018-07-13T08:16:45.040Z,10.43
2018-07-13T08:19:13.787Z,10.00
2018-07-13T08:21:44.343Z,14.67
2018-07-13T08:24:17.673Z,11.13
2018-07-13T08:26:46.507Z,16.07
2018-07-13T08:29:16.221Z,10.47
2018-07-13T08:31:44.893Z,12.00
2018-07-13T08:34:13.497Z,12.67
2018-07-13T08:36:42.251Z,12.57
2018-07-13T08:39:10.891Z,10.07
2018-07-13T08:41:39.146Z,11.70
2018-07-13T08:44:07.861Z,12.67
2018-07-13T08:46:36.588Z,13.63
2018-07-13T08:49:05.485Z,13.67
2018-07-13T08:51:34.229Z,12.43
2018-07-13T08:54:02.868Z,10.90
2018-07-13T08:56:31.534Z,12.37
2018-07-13T08:59:00.337Z,10.30
2018-07-13T09:01:28.972Z,8.83
2018-07-13T09:03:57.723Z,12.70
2018-07-13T09:06:26.510Z,12.13
2018-07-13T09:08:55.180Z,11.67
2018-07-13T09:11:23.930Z,10.43
2018-07-13T09:13:52.673Z,10.60
2018-07-13T09:16:21.371Z,11.50
2018-07-13T09:18:50.049Z,12.03
2018-07-13T09:21:18.685Z,9.43
2018-07-13T09:23:47.330Z,13.13
2018-07-13T09:26:16.015Z,9.83
2018-07-13T09:28:44.704Z,11.00
2018-07-13T09:31:13.380Z,10.83
2018-07-13T09:33:42.026Z,10.10
2018-07-13T09:36:10.696Z,9.80
2018-07-13T09:38:39.366Z,9.30
2018-07-13T09:41:08.090Z,8.27
2018-07-13T09:43:36.807Z,10.47
2018-07-13T09:46:05.590Z,9.03
2018-07-13T09:48:34.244Z,8.83
2018-07-13T09:51:02.951Z,11.80
2018-07-13T09:53:31.744Z,12.40
2018-07-13T09:56:00.391Z,8.30
2018-07-13T09:58:34.742Z,11.17
2018-07-13T10:01:08.597Z,11.73
2018-07-13T10:03:37.261Z,10.97
2018-07-13T10:06:05.993Z,10.37
2018-07-13T10:08:35.297Z,8.77
2018-07-13T10:11:04.083Z,9.10
2018-07-13T10:13:32.875Z,9.20
2018-07-13T10:16:01.536Z,10.80
2018-07-13T10:18:31.165Z,9.33
2018-07-13T10:21:00.390Z,9.50
2018-07-13T10:23:29.551Z,9.77
2018-07-13T10:26:03.642Z,10.30
2018-07-13T10:28:32.822Z,11.57
2018-07-13T10:31:01.647Z,10.27
2018-07-13T10:33:30.398Z,11.53
2018-07-13T10:35:59.609Z,8.73
2018-07-13T10:38:28.305Z,9.57
2018-07-13T10:40:57.029Z,10.97
2018-07-13T10:43:25.764Z,10.67
2018-07-13T10:45:54.436Z,10.90
2018-07-13T10:48:23.136Z,9.93
2018-07-13T10:50:51.798Z,8.50
2018-07-13T10:53:20.476Z,10.93
2018-07-13T10:55:49.143Z,7.97
2018-07-13T10:58:17.878Z,12.07
2018-07-13T11:00:46.606Z,8.90
2018-07-13T11:03:15.186Z,11.27
2018-07-13T11:05:43.812Z,8.17
2018-07-13T11:08:12.506Z,9.97
2018-07-13T11:10:41.129Z,9.90
2018-07-13T11:13:09.740Z,9.13
2018-07-13T11:15:38.382Z,11.83
2018-07-13T11:18:07.028Z,12.10
2018-07-13T11:20:35.646Z,10.77
2018-07-13T11:23:04.272Z,9.57
2018-07-13T11:25:32.930Z,8.87
2018-07-13T11:28:01.602Z,9.47
2018-07-13T11:30:30.209Z,9.10
2018-07-13T11:32:58.818Z,11.27
2018-07-13T11:35:27.492Z,7.83
2018-07-13T11:37:56.230Z,9.43
2018-07-13T11:40:24.842Z,8.30
2018-07-13T11:42:53.508Z,9.03
2018-07-13T11:45:22.233Z,8.93
2018-07-13T11:47:50.861Z,10.90
2018-07-13T11:50:19.552Z,9.40
2018-07-13T11:52:50.044Z,8.50
2018-07-13T11:55:18.705Z,10.30
2018-07-13T11:57:47.356Z,11.93
2018-07-13T12:00:16.006Z,8.00
2018-07-13T12:02:44.705Z,10.83
2018-07-13T12:05:13.335Z,8.73
2018-07-13T12:07:42.018Z,10.30
2018-07-13T12:10:10.568Z,12.70
2018-07-13T12:12:39.219Z,9.90
2018-07-13T12:15:07.840Z,13.53
2018-07-13T12:17:36.570Z,11.00
2018-07-13T12:20:05.256Z,11.80
2018-07-13T12:22:33.820Z,10.17
2018-07-13T12:25:02.499Z,11.13
2018-07-13T12:27:31.134Z,9.30
2018-07-13T12:29:59.792Z,11.10
2018-07-13T12:32:28.533Z,11.67
2018-07-13T12:34:57.122Z,13.47
2018-07-13T12:37:25.796Z,13.37
2018-07-13T12:39:54.532Z,12.40
2018-07-13T12:42:23.138Z,13.87
2018-07-13T12:44:51.766Z,12.70
2018-07-13T12:47:20.390Z,13.13
2018-07-13T12:49:49.029Z,9.97
2018-07-13T12:52:17.664Z,10.50
2018-07-13T12:54:46.423Z,14.60
2018-07-13T12:57:15.029Z,12.13
2018-07-13T12:59:43.329Z,11.57
2018-07-13T13:02:11.970Z,12.57
2018-07-13T13:04:40.596Z,12.77
2018-07-13T13:07:08.865Z,11.27
2018-07-13T13:09:37.516Z,12.53
2018-07-13T13:12:06.212Z,12.23
2018-07-13T13:14:34.882Z,12.50
2018-07-13T13:17:03.461Z,8.97
2018-07-13T13:19:32.593Z,11.63
2018-07-13T13:22:01.278Z,10.47
2018-07-13T13:24:30.021Z,11.77
2018-07-13T13:26:58.667Z,10.73
2018-07-13T13:29:27.300Z,8.07
2018-07-13T13:31:55.989Z,9.73
2018-07-13T13:34:24.584Z,7.23
2018-07-13T13:36:53.203Z,8.87
2018-07-13T13:39:21.868Z,11.10
2018-07-13T13:41:50.480Z,11.40
2018-07-13T13:44:19.076Z,11.00
2018-07-13T13:46:47.728Z,10.40
2018-07-13T13:49:16.352Z,9.67
2018-07-13T13:51:44.991Z,8.70
2018-07-13T13:54:13.841Z,8.27
2018-07-13T13:56:42.526Z,10.03
2018-07-13T13:59:11.197Z,9.50
2018-07-13T14:01:39.815Z,8.93
2018-07-13T14:04:08.450Z,8.00
2018-07-13T14:06:37.295Z,8.97
2018-07-13T14:09:06.934Z,7.90
2018-07-13T14:11:35.552Z,8.87
2018-07-13T14:14:04.260Z,9.60
2018-07-13T14:16:32.871Z,10.37
2018-07-13T14:19:01.503Z,7.47
2018-07-13T14:21:30.207Z,8.07
2018-07-13T14:23:58.751Z,7.17
2018-07-13T14:26:27.400Z,8.47
2018-07-13T14:28:56.078Z,9.60
2018-07-13T14:31:24.662Z,7.37
2018-07-13T14:33:53.393Z,9.53
2018-07-13T14:36:22.040Z,9.60
2018-07-13T14:38:50.672Z,7.73
2018-07-13T14:41:19.260Z,7.33
2018-07-13T14:43:47.921Z,7.97
2018-07-13T14:46:16.536Z,8.90
2018-07-13T14:48:45.161Z,6.87
2018-07-13T14:51:13.831Z,7.83
2018-07-13T14:53:42.511Z,9.10
2018-07-13T14:56:11.301Z,7.50
2018-07-13T14:58:39.885Z,8.13
2018-07-13T15:01:08.579Z,10.53
2018-07-13T15:03:37.212Z,6.53
2018-07-13T15:06:06.293Z,7.57
2018-07-13T15:08:34.779Z,10.03
2018-07-13T15:11:03.437Z,8.80
2018-07-13T15:13:32.088Z,8.17
2018-07-13T15:16:00.744Z,9.63
2018-07-13T15:18:29.388Z,8.23
2018-07-13T15:20:58.038Z,7.53
2018-07-13T15:23:27.108Z,8.90
2018-07-13T15:25:55.830Z,7.37
2018-07-13T15:28:24.493Z,7.50
2018-07-13T15:30:53.509Z,9.03
2018-07-13T15:33:22.167Z,7.93
2018-07-13T15:35:50.853Z,8.30
2018-07-13T15:38:19.503Z,6.93
2018-07-13T15:40:48.274Z,7.37
2018-07-13T15:43:16.968Z,9.13
2018-07-13T15:45:45.558Z,9.40
2018-07-13T15:48:14.271Z,11.13
2018-07-13T15:50:42.967Z,5.67
2018-07-13T15:53:11.547Z,7.37
2018-07-13T15:55:45.616Z,8.68
2018-07-13T15:58:14.303Z,9.50
2018-07-13T16:00:42.968Z,6.40
2018-07-13T16:03:11.642Z,7.05
2018-07-13T16:05:40.255Z,5.08
2018-07-13T16:08:08.916Z,7.30
2018-07-13T16:10:37.585Z,9.43
2018-07-13T16:13:06.239Z,5.67
2018-07-13T16:15:34.895Z,6.67
2018-07-13T16:18:03.502Z,6.70
2018-07-13T16:20:31.765Z,7.43
2018-07-13T16:23:00.476Z,10.10
2018-07-13T16:25:29.071Z,7.93
2018-07-13T16:27:57.715Z,6.87
2018-07-13T16:30:26.447Z,9.77
2018-07-13T16:32:55.117Z,6.93
2018-07-13T16:35:23.739Z,5.27
2018-07-13T16:37:52.703Z,6.83
2018-07-13T16:40:21.323Z,7.87
2018-07-13T16:42:50.321Z,7.10
2018-07-13T16:45:19.005Z,6.67
2018-07-13T16:47:47.716Z,7.77
2018-07-13T16:50:16.390Z,7.70
2018-07-13T16:52:45.024Z,7.67
2018-07-13T16:55:13.625Z,8.50
2018-07-13T16:57:42.371Z,6.47
2018-07-13T17:00:11.617Z,7.13
2018-07-13T17:02:40.275Z,5.40
2018-07-13T17:05:08.917Z,8.53
2018-07-13T17:07:37.554Z,7.40
2018-07-13T17:10:06.137Z,6.37
2018-07-13T17:12:34.770Z,7.27
2018-07-13T17:15:03.422Z,9.77
2018-07-13T17:17:32.186Z,11.00
2018-07-13T17:20:00.847Z,7.53
2018-07-13T17:22:29.618Z,9.20
2018-07-13T17:24:58.260Z,7.53
2018-07-13T17:27:26.903Z,7.77
2018-07-13T17:29:55.590Z,6.50
2018-07-13T17:32:24.222Z,7.50
2018-07-13T17:34:52.805Z,6.27
2018-07-13T17:37:21.552Z,6.03
2018-07-13T17:39:50.172Z,4.90
2018-07-13T17:42:18.804Z,5.60
2018-07-13T17:44:47.445Z,5.80
2018-07-13T17:47:16.139Z,8.37
2018-07-13T17:49:44.788Z,7.03
2018-07-13T17:52:13.421Z,7.03
2018-07-13T17:54:42.047Z,7.53
2018-07-13T17:57:10.708Z,8.97
2018-07-13T17:59:39.369Z,6.37
2018-07-13T18:02:08.135Z,5.87
2018-07-13T18:04:36.737Z,7.07
2018-07-13T18:07:05.474Z,5.00
2018-07-13T18:09:34.092Z,5.57
2018-07-13T18:12:02.754Z,6.53
2018-07-13T18:14:31.357Z,10.30
2018-07-13T18:17:00.033Z,5.93
2018-07-13T18:19:28.701Z,7.37
2018-07-13T18:21:57.298Z,6.27
2018-07-13T18:24:25.912Z,4.53
2018-07-13T18:26:54.553Z,7.17
2018-07-13T18:29:23.190Z,5.37
2018-07-13T18:31:51.794Z,8.57
2018-07-13T18:34:20.422Z,5.00
2018-07-13T18:36:49.116Z,5.87
2018-07-13T18:39:17.740Z,7.03
2018-07-13T18:41:46.422Z,7.93
2018-07-13T18:44:15.077Z,4.73
2018-07-13T18:46:43.669Z,7.87
2018-07-13T18:49:12.324Z,4.67
2018-07-13T18:51:41.109Z,7.87
2018-07-13T18:54:09.750Z,8.50
2018-07-13T18:56:38.525Z,6.03
2018-07-13T18:59:07.127Z,7.23
2018-07-13T19:01:35.738Z,6.87
2018-07-13T19:04:04.477Z,6.10
2018-07-13T19:06:33.053Z,4.73
2018-07-13T19:09:01.708Z,7.23
2018-07-13T19:11:30.361Z,9.17
2018-07-13T19:13:59.036Z,5.63
2018-07-13T19:16:27.642Z,5.13
2018-07-13T19:18:56.379Z,5.50
2018-07-13T19:21:24.977Z,6.23
2018-07-13T19:23:53.588Z,5.40
2018-07-13T19:26:22.231Z,6.57
2018-07-13T19:28:50.955Z,8.83
2018-07-13T19:31:19.617Z,6.90
2018-07-13T19:33:48.205Z,6.77
2018-07-13T19:36:16.862Z,8.47
2018-07-13T19:38:45.450Z,6.47
2018-07-13T19:41:13.743Z,7.37
2018-07-13T19:43:42.022Z,4.40
2018-07-13T19:46:10.634Z,6.70
2018-07-13T19:48:39.340Z,5.87
2018-07-13T19:51:07.980Z,6.20
2018-07-13T19:53:36.596Z,5.57
2018-07-13T19:56:05.352Z,6.47
2018-07-13T19:58:33.971Z,7.03
2018-07-13T20:01:02.689Z,5.97
2018-07-13T20:03:31.347Z,5.90
2018-07-13T20:06:00.744Z,5.27
2018-07-13T20:08:29.500Z,6.00
2018-07-13T20:10:58.989Z,8.30
2018-07-13T20:13:27.623Z,6.10
2018-07-13T20:15:56.227Z,7.07
2018-07-13T20:18:24.864Z,5.10
2018-07-13T20:20:53.695Z,6.43
2018-07-13T20:23:22.305Z,7.23
2018-07-13T20:25:50.916Z,5.57
2018-07-13T20:28:19.530Z,5.80
2018-07-13T20:30:48.227Z,5.93
2018-07-13T20:33:16.929Z,7.27
2018-07-13T20:35:45.562Z,7.10
2018-07-13T20:38:14.376Z,4.97
2018-07-13T20:40:42.983Z,5.23
2018-07-13T20:43:11.666Z,5.30
2018-07-13T20:45:40.302Z,7.03
2018-07-13T20:48:08.984Z,6.67
2018-07-13T20:50:37.613Z,8.13
2018-07-13T20:53:06.297Z,7.80
2018-07-13T20:55:34.905Z,6.27
2018-07-13T20:58:03.559Z,6.57
2018-07-13T21:00:32.326Z,6.27
2018-07-13T21:03:00.999Z,6.60
2018-07-13T21:05:29.616Z,7.03
2018-07-13T21:07:57.853Z,5.93
2018-07-13T21:10:26.486Z,7.10
2018-07-13T21:12:55.109Z,6.40
2018-07-13T21:15:23.743Z,6.67
2018-07-13T21:17:52.531Z,6.77
2018-07-13T21:20:21.295Z,6.73
2018-07-13T21:22:49.809Z,8.23
2018-07-13T21:25:18.504Z,7.90
2018-07-13T21:27:47.105Z,7.20
2018-07-13T21:30:15.354Z,9.00
2018-07-13T21:32:44.017Z,10.67
2018-07-13T21:35:12.744Z,6.97
2018-07-13T21:37:41.435Z,9.50
2018-07-13T21:40:10.070Z,8.77
2018-07-13T21:42:38.717Z,7.70
2018-07-13T21:45:07.491Z,8.87
2018-07-13T21:47:36.135Z,7.23
2018-07-13T21:50:04.873Z,9.07
2018-07-13T21:52:33.831Z,6.17
2018-07-13T21:55:02.459Z,6.40
2018-07-13T21:57:31.152Z,6.10
2018-07-13T21:59:59.861Z,7.17
2018-07-13T22:02:28.526Z,9.83
2018-07-13T22:04:57.164Z,7.50
2018-07-13T22:07:25.828Z,8.47
2018-07-13T22:09:54.440Z,7.63
2018-07-13T22:12:23.118Z,9.17
2018-07-13T22:14:51.780Z,8.57
2018-07-13T22:17:20.394Z,8.27
2018-07-13T22:19:49.002Z,10.07
2018-07-13T22:22:17.645Z,7.80
2018-07-13T22:24:46.345Z,6.57
2018-07-13T22:27:15.023Z,7.00
2018-07-13T22:29:43.736Z,10.10
2018-07-13T22:32:12.457Z,6.60
2018-07-13T22:34:41.095Z,7.90
2018-07-13T22:37:09.769Z,7.77
2018-07-13T22:39:38.431Z,8.07
2018-07-13T22:42:07.859Z,8.93
2018-07-13T22:44:36.488Z,8.43
2018-07-13T22:47:05.135Z,6.97
2018-07-13T22:49:33.828Z,7.57
2018-07-13T22:52:02.461Z,9.50
2018-07-13T22:54:31.061Z,9.63
2018-07-13T22:56:59.708Z,7.97
2018-07-13T22:59:28.394Z,9.50
2018-07-13T23:01:57.089Z,7.97
2018-07-13T23:04:25.742Z,7.17
2018-07-13T23:06:54.907Z,11.00
2018-07-13T23:09:23.591Z,8.90
2018-07-13T23:11:52.311Z,7.30
2018-07-13T23:14:20.561Z,8.27
2018-07-13T23:16:49.279Z,9.83
2018-07-13T23:19:17.952Z,9.23
2018-07-13T23:21:46.271Z,7.97
2018-07-13T23:24:15.046Z,7.13
2018-07-13T23:26:43.744Z,8.23
2018-07-13T23:29:12.464Z,7.37
2018-07-13T23:31:41.136Z,10.57
2018-07-13T23:34:09.836Z,8.93
2018-07-13T23:36:38.450Z,9.80
2018-07-13T23:39:07.166Z,10.00
2018-07-13T23:41:35.923Z,10.70
2018-07-13T23:44:04.618Z,10.23
2018-07-13T23:46:33.282Z,9.07
2018-07-13T23:49:01.927Z,10.13
2018-07-13T23:51:30.654Z,7.00
2018-07-13T23:53:59.305Z,10.43
2018-07-13T23:56:27.927Z,10.73
2018-07-13T23:58:56.701Z,9.23
